Time;durP1;ratioP1;P1;durP2;ratioP2;P2;SDS_P1;SDS_P2;PMS_P1;PMS_P2;Temp;Humidity;BMP_temperature;BMP_pressure;BME280_temperature;BME280_humidity;BME280_pressure;Samples;Min_cycle;Max_cycle;Signal;HPM_P1;HPM_P2
2023/07/20 00:00:29;;;;;;;10.53;2.70;;;18.00;99.90;;;;;;7299599;19;20722;-74
2023/07/20 00:03:11;;;;;;;7.10;2.50;;;18.10;99.90;;;;;;7287453;19;20189;-74
2023/07/20 00:05:36;;;;;;;10.80;2.93;;;18.10;99.90;;;;;;7175550;19;2005181;-74
2023/07/20 00:08:02;;;;;;;7.43;2.70;;;18.20;99.90;;;;;;7278725;19;20185;-75
2023/07/20 00:10:27;;;;;;;8.43;2.77;;;18.30;99.90;;;;;;7299804;19;20204;-73
2023/07/20 00:12:53;;;;;;;9.57;2.70;;;18.30;99.90;;;;;;7278415;19;20652;-74
2023/07/20 00:15:19;;;;;;;11.37;2.70;;;18.30;99.90;;;;;;7276172;19;20205;-74
2023/07/20 00:17:44;;;;;;;8.87;3.00;;;18.30;99.90;;;;;;7278455;19;20194;-74
2023/07/20 00:20:11;;;;;;;10.00;2.60;;;18.20;99.90;;;;;;7278363;19;20195;-73
2023/07/20 00:22:36;;;;;;;9.33;2.70;;;18.30;99.90;;;;;;7278571;19;20244;-74
2023/07/20 00:25:03;;;;;;;7.73;2.47;;;18.20;99.90;;;;;;7278206;19;20749;-74
2023/07/20 00:27:28;;;;;;;8.57;2.73;;;18.20;99.90;;;;;;7301471;19;20191;-74
2023/07/20 00:29:54;;;;;;;7.43;2.50;;;18.10;99.90;;;;;;7278649;19;20188;-74
2023/07/20 00:32:20;;;;;;;9.10;2.80;;;18.10;99.90;;;;;;7278416;19;20531;-73
2023/07/20 00:34:45;;;;;;;12.47;3.47;;;18.10;99.90;;;;;;7277660;19;20223;-73
2023/07/20 00:37:11;;;;;;;11.77;3.13;;;18.20;99.90;;;;;;7278105;19;20191;-74
2023/07/20 00:39:38;;;;;;;9.37;2.90;;;18.20;99.90;;;;;;7277942;19;20184;-74
2023/07/20 00:42:04;;;;;;;9.50;2.87;;;18.10;99.90;;;;;;7277989;19;20189;-75
2023/07/20 00:44:30;;;;;;;10.47;2.80;;;18.10;99.90;;;;;;7288191;19;20267;-74
2023/07/20 00:46:56;;;;;;;8.07;2.90;;;18.00;99.90;;;;;;7298775;19;20701;-74
2023/07/20 00:49:23;;;;;;;7.97;2.90;;;18.10;99.90;;;;;;7277338;19;20289;-74
2023/07/20 00:51:50;;;;;;;10.60;3.10;;;18.10;99.90;;;;;;7277918;19;20240;-74
2023/07/20 00:54:16;;;;;;;8.80;3.00;;;18.20;99.90;;;;;;7277788;19;20184;-73
2023/07/20 00:56:43;;;;;;;9.57;2.97;;;18.30;99.90;;;;;;7277408;19;20185;-74
2023/07/20 00:59:10;;;;;;;9.23;3.20;;;18.30;99.90;;;;;;7276046;19;20191;-74
2023/07/20 01:01:36;;;;;;;11.33;3.20;;;18.30;99.90;;;;;;7277468;19;20192;-74
2023/07/20 01:04:01;;;;;;;13.77;3.10;;;18.30;99.90;;;;;;7276825;19;20576;-74
2023/07/20 01:06:40;;;;;;;10.77;2.77;;;18.40;99.90;;;;;;7298286;19;20669;-74
2023/07/20 01:09:05;;;;;;;9.93;3.20;;;18.40;99.90;;;;;;7175493;19;2006200;-74
2023/07/20 01:11:48;;;;;;;8.63;3.33;;;18.40;99.90;;;;;;7276215;19;21103;-74
2023/07/20 01:14:16;;;;;;;7.77;3.23;;;18.50;99.90;;;;;;7278247;19;20649;-74
2023/07/20 01:16:42;;;;;;;11.97;3.70;;;18.50;99.90;;;;;;7276886;19;20186;-74
2023/07/20 01:19:08;;;;;;;12.07;3.47;;;18.60;99.90;;;;;;7273937;19;20220;-74
2023/07/20 01:22:15;;;;;;;12.20;3.93;;;18.60;99.90;;;;;;7276271;19;20188;-74
2023/07/20 01:25:09;;;;;;;12.27;3.33;;;18.60;99.90;;;;;;7173957;19;2004464;-75
2023/07/20 01:28:02;;;;;;;10.63;3.33;;;18.50;99.90;;;;;;7181172;19;2005119;-74
2023/07/20 01:30:45;;;;;;;10.63;3.40;;;18.50;99.90;;;;;;7284970;19;20536;-74
2023/07/20 01:33:13;;;;;;;12.40;3.60;;;18.40;99.90;;;;;;7181118;19;2005297;-74
2023/07/20 01:35:43;;;;;;;11.53;3.17;;;18.50;99.90;;;;;;7284409;19;20184;-74
2023/07/20 01:38:11;;;;;;;13.07;3.50;;;18.60;99.90;;;;;;7281019;19;20677;-74
2023/07/20 01:40:38;;;;;;;13.33;3.87;;;18.60;99.90;;;;;;7284551;19;20742;-74
2023/07/20 01:43:04;;;;;;;11.50;3.27;;;18.60;99.90;;;;;;7282859;19;20188;-74
2023/07/20 01:45:30;;;;;;;10.00;3.67;;;18.60;99.90;;;;;;7298871;19;20278;-74
2023/07/20 01:47:57;;;;;;;11.17;3.30;;;18.60;99.90;;;;;;7306307;19;20187;-74
2023/07/20 01:50:22;;;;;;;10.93;3.33;;;18.50;99.90;;;;;;7282389;19;20711;-74
2023/07/20 01:52:48;;;;;;;14.33;3.83;;;18.60;99.90;;;;;;7280908;19;20660;-74
2023/07/20 01:55:14;;;;;;;10.07;3.43;;;18.60;99.90;;;;;;7283457;19;20193;-74
2023/07/20 01:57:39;;;;;;;13.20;3.47;;;18.60;99.90;;;;;;7281204;19;20218;-74
2023/07/20 02:00:06;;;;;;;12.60;3.50;;;18.70;99.90;;;;;;7282070;19;20684;-74
2023/07/20 02:02:41;;;;;;;10.50;3.50;;;18.60;99.90;;;;;;7280868;19;20193;-74
2023/07/20 02:05:07;;;;;;;10.17;3.50;;;18.60;99.90;;;;;;7280785;19;20256;-73
2023/07/20 02:07:33;;;;;;;12.07;3.83;;;18.60;99.90;;;;;;7282370;19;20269;-74
2023/07/20 02:09:59;;;;;;;10.13;3.90;;;18.60;99.90;;;;;;7304405;19;20192;-73
2023/07/20 02:12:24;;;;;;;12.47;3.80;;;18.60;99.90;;;;;;7281661;19;20188;-73
2023/07/20 02:14:51;;;;;;;10.67;3.57;;;18.70;99.90;;;;;;7283275;19;20189;-73
2023/07/20 02:17:16;;;;;;;8.17;3.20;;;18.80;99.90;;;;;;7282156;19;20198;-74
2023/07/20 02:19:42;;;;;;;12.33;3.70;;;18.80;99.90;;;;;;7282497;19;20719;-73
2023/07/20 02:22:08;;;;;;;10.90;3.60;;;18.80;99.90;;;;;;7280956;19;20209;-73
2023/07/20 02:24:34;;;;;;;11.43;3.80;;;18.70;99.90;;;;;;7280698;19;20260;-74
2023/07/20 02:27:00;;;;;;;11.57;3.73;;;18.70;99.90;;;;;;7301710;19;20196;-74
2023/07/20 02:29:26;;;;;;;10.17;3.80;;;18.80;99.90;;;;;;7297492;19;20195;-73
2023/07/20 02:31:51;;;;;;;14.37;3.83;;;18.80;99.90;;;;;;7282348;19;20232;-74
2023/07/20 02:34:17;;;;;;;13.53;4.10;;;18.80;99.90;;;;;;7283619;19;20267;-73
2023/07/20 02:36:43;;;;;;;12.97;3.77;;;18.80;99.90;;;;;;7278813;19;20554;-74
2023/07/20 02:39:09;;;;;;;13.23;4.53;;;18.80;99.90;;;;;;7280074;19;20196;-74
2023/07/20 02:41:35;;;;;;;12.00;4.40;;;18.70;99.90;;;;;;7281399;19;20203;-73
2023/07/20 02:44:01;;;;;;;17.60;4.90;;;18.70;99.90;;;;;;7287078;19;20545;-73
2023/07/20 02:46:29;;;;;;;15.17;4.60;;;18.60;99.90;;;;;;7302537;19;20210;-74
2023/07/20 02:48:55;;;;;;;16.07;5.00;;;18.60;99.90;;;;;;7281566;19;20559;-73
2023/07/20 02:51:21;;;;;;;13.00;5.13;;;18.40;99.90;;;;;;7280396;19;20197;-74
2023/07/20 02:53:46;;;;;;;17.33;5.90;;;18.40;99.90;;;;;;7279208;19;20198;-73
2023/07/20 02:56:12;;;;;;;15.73;5.40;;;18.30;99.90;;;;;;7281161;19;20225;-74
2023/07/20 02:58:43;;;;;;;18.23;5.80;;;18.40;99.90;;;;;;7279996;19;20217;-74
2023/07/20 03:01:09;;;;;;;14.17;5.40;;;18.30;99.90;;;;;;7280148;19;20312;-73
2023/07/20 03:03:38;;;;;;;13.30;5.33;;;18.30;99.90;;;;;;7280146;19;20193;-74
2023/07/20 03:06:05;;;;;;;13.37;5.47;;;18.20;99.90;;;;;;7279445;19;20197;-74
2023/07/20 03:08:31;;;;;;;16.90;6.40;;;18.20;99.90;;;;;;7288996;19;20657;-75
2023/07/20 03:10:56;;;;;;;19.07;6.30;;;18.20;99.90;;;;;;7301603;19;20222;-74
2023/07/20 03:13:24;;;;;;;17.83;6.80;;;18.30;99.90;;;;;;7282529;19;20192;-75
2023/07/20 03:15:49;;;;;;;14.93;6.17;;;18.30;99.90;;;;;;7280076;19;20203;-74
2023/07/20 03:18:16;;;;;;;17.77;6.27;;;18.20;99.90;;;;;;7279389;19;20193;-73
2023/07/20 03:20:41;;;;;;;18.37;6.53;;;18.20;99.90;;;;;;7279784;19;20188;-73
2023/07/20 03:23:07;;;;;;;18.93;7.00;;;18.20;99.90;;;;;;7279970;19;20196;-74
2023/07/20 03:25:33;;;;;;;17.20;7.10;;;18.20;99.90;;;;;;7279777;19;20192;-74
2023/07/20 03:27:59;;;;;;;17.37;7.27;;;18.20;99.90;;;;;;7303656;19;20190;-74
2023/07/20 03:30:25;;;;;;;15.73;6.70;;;18.20;99.90;;;;;;7280727;19;20224;-74
2023/07/20 03:32:51;;;;;;;19.07;7.80;;;18.20;99.90;;;;;;7281647;19;20181;-74
2023/07/20 03:35:17;;;;;;;20.53;7.40;;;18.30;99.90;;;;;;7279924;19;20200;-74
2023/07/20 03:37:43;;;;;;;18.70;7.70;;;18.30;99.90;;;;;;7279272;19;20288;-74
2023/07/20 03:40:09;;;;;;;18.30;7.80;;;18.30;99.90;;;;;;7278523;19;20701;-74
2023/07/20 03:42:36;;;;;;;21.33;7.70;;;18.30;99.90;;;;;;7279438;19;20213;-74
2023/07/20 03:45:02;;;;;;;16.93;7.20;;;18.30;99.90;;;;;;7278876;19;20603;-74
2023/07/20 03:47:28;;;;;;;18.77;7.70;;;18.20;99.90;;;;;;7300718;19;20193;-74
2023/07/20 03:49:54;;;;;;;16.27;7.07;;;18.20;99.90;;;;;;7278821;19;20228;-74
2023/07/20 03:52:20;;;;;;;22.93;8.20;;;18.20;99.90;;;;;;7278934;19;20230;-74
2023/07/20 03:54:45;;;;;;;20.23;8.23;;;18.30;99.90;;;;;;7279865;19;20198;-74
2023/07/20 03:57:11;;;;;;;19.83;8.80;;;18.30;99.90;;;;;;7278138;19;20209;-74
2023/07/20 03:59:37;;;;;;;16.50;7.93;;;18.30;99.90;;;;;;7277531;19;20193;-74
2023/07/20 04:02:05;;;;;;;20.10;9.27;;;18.30;99.90;;;;;;7278383;19;20676;-74
2023/07/20 04:04:31;;;;;;;20.40;8.93;;;18.20;99.90;;;;;;7285494;19;20212;-74
2023/07/20 04:06:56;;;;;;;23.33;9.17;;;18.30;99.90;;;;;;7300751;19;20196;-74
2023/07/20 04:09:22;;;;;;;22.73;9.53;;;18.30;99.90;;;;;;7279424;19;20191;-74
2023/07/20 04:11:48;;;;;;;23.93;9.43;;;18.30;99.90;;;;;;7277908;19;20199;-74
2023/07/20 04:14:13;;;;;;;24.10;9.07;;;18.30;99.90;;;;;;7278490;19;20576;-74
2023/07/20 04:16:39;;;;;;;25.17;9.37;;;18.30;99.90;;;;;;7276638;19;20627;-74
2023/07/20 04:19:05;;;;;;;18.97;9.07;;;18.30;99.90;;;;;;7276194;19;20197;-74
2023/07/20 04:21:30;;;;;;;19.13;9.57;;;18.30;99.90;;;;;;7290976;19;20185;-74
2023/07/20 04:23:56;;;;;;;20.83;9.73;;;18.30;99.90;;;;;;7294831;19;20657;-73
2023/07/20 04:26:22;;;;;;;22.80;9.63;;;18.30;99.90;;;;;;7278639;19;20189;-74
2023/07/20 04:28:50;;;;;;;22.40;8.97;;;18.20;99.90;;;;;;7277681;19;20196;-74
2023/07/20 04:31:27;;;;;;;22.83;9.93;;;18.20;99.90;;;;;;7279439;19;20188;-74
2023/07/20 04:33:53;;;;;;;22.83;10.07;;;18.20;99.90;;;;;;7279591;19;20208;-74
2023/07/20 04:36:19;;;;;;;22.97;9.67;;;18.20;99.90;;;;;;7276664;19;20210;-74
2023/07/20 04:38:47;;;;;;;20.73;9.70;;;18.30;99.90;;;;;;7276324;19;21015;-74
2023/07/20 04:41:17;;;;;;;20.43;9.17;;;18.30;99.90;;;;;;7277458;19;20728;-74
2023/07/20 04:43:46;;;;;;;20.73;10.23;;;18.40;99.90;;;;;;7277722;19;20790;-74
2023/07/20 04:46:14;;;;;;;21.33;10.17;;;18.40;99.90;;;;;;7275783;19;20196;-74
2023/07/20 04:48:41;;;;;;;24.33;10.30;;;18.40;99.90;;;;;;7276593;19;20257;-74
2023/07/20 04:51:07;;;;;;;21.80;9.93;;;18.50;99.90;;;;;;7276428;19;20280;-74
2023/07/20 04:53:33;;;;;;;26.57;10.23;;;18.60;99.90;;;;;;7277078;19;20190;-74
2023/07/20 04:55:59;;;;;;;20.63;10.17;;;18.70;99.90;;;;;;7298622;19;20204;-74
2023/07/20 04:58:25;;;;;;;22.43;9.50;;;18.70;99.90;;;;;;7277659;19;20199;-74
2023/07/20 05:00:53;;;;;;;27.13;10.33;;;18.80;99.90;;;;;;7281592;19;20199;-75
2023/07/20 05:03:20;;;;;;;25.73;10.63;;;18.80;99.90;;;;;;7282990;19;20325;-73
2023/07/20 05:05:48;;;;;;;23.77;10.33;;;18.80;99.90;;;;;;7282669;19;20214;-74
2023/07/20 05:08:14;;;;;;;24.97;10.53;;;18.80;99.90;;;;;;7285462;19;20181;-74
2023/07/20 05:10:40;;;;;;;18.47;9.40;;;18.80;99.90;;;;;;7283823;19;20646;-74
2023/07/20 05:13:06;;;;;;;22.53;10.13;;;18.90;99.90;;;;;;7284524;19;20587;-74
2023/07/20 05:15:34;;;;;;;20.50;10.10;;;19.00;99.90;;;;;;7285266;19;20186;-73
2023/07/20 05:18:00;;;;;;;25.17;10.50;;;19.10;99.90;;;;;;7303344;19;20189;-74
2023/07/20 05:20:27;;;;;;;19.63;9.70;;;19.20;99.90;;;;;;7302649;19;20195;-74
2023/07/20 05:22:53;;;;;;;22.37;9.70;;;19.30;99.90;;;;;;7282360;19;20268;-74
2023/07/20 05:25:22;;;;;;;22.90;9.10;;;19.30;99.90;;;;;;7281784;19;20311;-74
2023/07/20 05:27:48;;;;;;;20.53;9.53;;;19.50;99.90;;;;;;7286025;19;20542;-74
2023/07/20 05:30:13;;;;;;;24.53;9.80;;;19.50;99.90;;;;;;7283677;19;20200;-74
2023/07/20 05:32:39;;;;;;;21.47;9.67;;;19.40;99.90;;;;;;7282698;19;20197;-74
2023/07/20 05:35:05;;;;;;;24.03;9.70;;;19.40;99.90;;;;;;7283508;19;20192;-74
2023/07/20 05:37:31;;;;;;;18.00;9.40;;;19.30;99.90;;;;;;7288207;19;20183;-73
2023/07/20 05:39:57;;;;;;;18.40;9.97;;;19.40;99.90;;;;;;7304602;19;20590;-74
2023/07/20 05:42:23;;;;;;;21.40;9.47;;;19.50;99.90;;;;;;7283678;19;20181;-74
2023/07/20 05:44:49;;;;;;;22.13;9.60;;;19.50;99.90;;;;;;7282057;19;20630;-74
2023/07/20 05:47:15;;;;;;;18.37;9.10;;;19.60;99.90;;;;;;7283798;19;20193;-73
2023/07/20 05:49:41;;;;;;;22.50;8.77;;;19.70;99.90;;;;;;7283617;19;20635;-74
2023/07/20 05:52:07;;;;;;;19.53;8.83;;;19.80;99.90;;;;;;7281558;19;20193;-74
2023/07/20 05:54:32;;;;;;;21.73;9.47;;;19.80;99.90;;;;;;7284044;19;20612;-75
2023/07/20 05:56:58;;;;;;;18.60;8.90;;;19.80;99.90;;;;;;7305481;19;20803;-74
2023/07/20 05:59:24;;;;;;;19.60;9.20;;;19.60;99.90;;;;;;7282850;19;20655;-74
2023/07/20 06:01:50;;;;;;;20.70;9.17;;;19.50;99.90;;;;;;7282443;19;20303;-74
2023/07/20 06:04:16;;;;;;;17.03;8.93;;;19.60;99.90;;;;;;7282430;19;20219;-74
2023/07/20 06:06:41;;;;;;;19.87;9.53;;;19.70;99.90;;;;;;7282549;19;20674;-75
2023/07/20 06:09:11;;;;;;;20.20;9.37;;;19.80;99.90;;;;;;7282605;19;20195;-74
2023/07/20 06:11:38;;;;;;;17.07;9.20;;;19.90;99.90;;;;;;7280933;19;20646;-75
2023/07/20 06:14:04;;;;;;;18.70;9.60;;;19.90;99.90;;;;;;7283378;19;20189;-74
2023/07/20 06:16:30;;;;;;;17.80;9.27;;;20.00;99.90;;;;;;7305420;19;20783;-75
2023/07/20 06:18:56;;;;;;;27.17;11.70;;;20.10;99.90;;;;;;7282641;19;20186;-74
2023/07/20 06:21:22;;;;;;;23.03;12.40;;;20.00;99.90;;;;;;7281598;19;20195;-75
2023/07/20 06:23:47;;;;;;;20.13;11.10;;;19.80;99.90;;;;;;7282916;19;20259;-75
2023/07/20 06:26:14;;;;;;;19.67;10.77;;;19.70;99.90;;;;;;7282678;19;20272;-74
2023/07/20 06:28:39;;;;;;;20.80;9.80;;;19.70;99.90;;;;;;7283691;19;20748;-74
2023/07/20 06:31:05;;;;;;;19.13;9.30;;;19.70;99.90;;;;;;7282942;19;20297;-74
2023/07/20 06:33:31;;;;;;;21.00;9.90;;;19.70;99.90;;;;;;7292589;19;20252;-75
2023/07/20 06:35:57;;;;;;;19.87;9.50;;;19.70;99.90;;;;;;7300100;19;20539;-74
2023/07/20 06:38:23;;;;;;;23.17;10.03;;;19.80;99.90;;;;;;7281506;19;20190;-74
2023/07/20 06:40:50;;;;;;;22.60;9.90;;;19.80;99.90;;;;;;7281451;19;20555;-74
2023/07/20 06:43:16;;;;;;;20.17;9.63;;;19.90;99.90;;;;;;7282541;19;20189;-75
2023/07/20 06:45:42;;;;;;;20.83;9.10;;;20.00;99.90;;;;;;7281851;19;20203;-75
2023/07/20 06:48:08;;;;;;;20.27;9.13;;;20.00;99.90;;;;;;7282033;19;20195;-74
2023/07/20 06:50:34;;;;;;;20.83;9.00;;;20.10;99.90;;;;;;7279480;19;20569;-75
2023/07/20 06:53:03;;;;;;;18.90;8.27;;;20.10;99.90;;;;;;7303086;19;20196;-75
2023/07/20 06:55:28;;;;;;;19.10;9.00;;;20.20;99.90;;;;;;7281590;19;20239;-74
2023/07/20 06:57:54;;;;;;;21.87;9.43;;;20.30;99.90;;;;;;7281650;19;20196;-75
2023/07/20 07:00:20;;;;;;;17.47;8.57;;;20.30;99.90;;;;;;7281086;19;20211;-75
2023/07/20 07:02:46;;;;;;;19.67;9.63;;;20.50;99.90;;;;;;7278562;19;20680;-75
2023/07/20 07:05:13;;;;;;;18.93;9.40;;;20.90;99.90;;;;;;7279002;19;20554;-74
2023/07/20 07:07:39;;;;;;;16.70;9.27;;;21.40;99.90;;;;;;7280840;19;20206;-75
2023/07/20 07:10:05;;;;;;;17.90;9.57;;;21.90;99.90;;;;;;7281006;19;20192;-74
2023/07/20 07:12:31;;;;;;;18.13;9.13;;;22.20;99.90;;;;;;7291491;19;20227;-75
2023/07/20 07:14:58;;;;;;;18.43;9.13;;;22.50;99.90;;;;;;7296046;19;20553;-75
2023/07/20 07:17:24;;;;;;;13.77;8.57;;;22.60;99.90;;;;;;7280779;19;20264;-74
2023/07/20 07:19:53;;;;;;;17.57;9.30;;;22.50;99.90;;;;;;7280019;19;20206;-74
2023/07/20 07:22:19;;;;;;;14.50;8.40;;;22.60;99.90;;;;;;7280069;19;20202;-74
2023/07/20 07:24:44;;;;;;;20.07;8.47;;;22.60;99.90;;;;;;7279304;19;20704;-75
2023/07/20 07:27:11;;;;;;;15.13;8.00;;;22.70;99.90;;;;;;7279728;19;20184;-73
2023/07/20 07:29:37;;;;;;;17.80;7.97;;;23.00;99.90;;;;;;7278232;19;20248;-73
2023/07/20 07:32:04;;;;;;;13.67;7.97;;;23.40;99.90;;;;;;7278877;19;20188;-73
2023/07/20 07:34:31;;;;;;;14.10;7.50;;;23.60;99.90;;;;;;7301339;19;20185;-73
2023/07/20 07:36:57;;;;;;;12.47;6.23;;;23.80;99.90;;;;;;7281984;19;20213;-79
2023/07/20 07:39:24;;;;;;;12.37;6.43;;;23.90;99.90;;;;;;7280219;19;20193;-78
2023/07/20 07:41:49;;;;;;;13.87;6.40;;;24.20;99.90;;;;;;7281133;19;20185;-79
2023/07/20 07:44:15;;;;;;;14.07;6.20;;;25.00;99.90;;;;;;7281877;19;20272;-78
2023/07/20 07:46:41;;;;;;;7.18;3.38;;;25.90;99.90;;;;;;7280455;19;20192;-78
2023/07/20 07:49:07;;;;;;;6.72;3.30;;;27.30;99.90;;;;;;7280247;19;20189;-78
2023/07/20 07:51:33;;;;;;;8.63;4.03;;;29.80;99.90;;;;;;7280368;19;20550;-78
2023/07/20 07:53:59;;;;;;;13.07;5.38;;;31.10;99.90;;;;;;7303142;19;20185;-79
2023/07/20 07:56:24;;;;;;;7.28;4.70;;;32.20;99.90;;;;;;7280613;19;20236;-79
2023/07/20 07:58:51;;;;;;;9.40;4.70;;;31.60;99.90;;;;;;7280242;19;20206;-78
2023/07/20 08:01:18;;;;;;;9.82;5.63;;;32.00;99.90;;;;;;7279634;19;20252;-78
2023/07/20 08:03:47;;;;;;;10.18;5.60;;;32.00;99.90;;;;;;7279377;19;20197;-78
2023/07/20 08:06:13;;;;;;;13.13;6.15;;;30.80;99.90;;;;;;7280143;19;20203;-78
2023/07/20 08:08:39;;;;;;;12.88;6.05;;;29.50;99.90;;;;;;7280177;19;20285;-78
2023/07/20 08:11:05;;;;;;;11.30;6.07;;;28.20;99.90;;;;;;7280201;19;20721;-78
2023/07/20 08:13:31;;;;;;;13.30;6.13;;;27.50;99.90;;;;;;7297093;19;20545;-77
2023/07/20 08:15:57;;;;;;;10.93;5.18;;;27.30;99.90;;;;;;7301126;19;20177;-78
2023/07/20 08:18:23;;;;;;;9.27;4.43;;;27.20;99.90;;;;;;7279695;19;20218;-79
2023/07/20 08:20:49;;;;;;;7.70;4.20;;;27.60;99.90;;;;;;7280242;19;20200;-78
2023/07/20 08:23:15;;;;;;;6.32;3.35;;;28.80;99.90;;;;;;7278949;19;20620;-78
2023/07/20 08:25:43;;;;;;;7.72;3.17;;;31.30;99.90;;;;;;7280156;19;20188;-78
2023/07/20 08:28:16;;;;;;;5.25;2.50;;;33.30;99.90;;;;;;7280214;19;20656;-78
2023/07/20 08:30:43;;;;;;;6.47;3.30;;;33.90;99.20;;;;;;7279219;19;20185;-79
2023/07/20 08:33:14;;;;;;;5.78;2.78;;;32.40;99.30;;;;;;7279798;19;20211;-78
2023/07/20 08:35:40;;;;;;;6.03;2.83;;;33.00;95.90;;;;;;7276939;19;20185;-78
2023/07/20 08:38:07;;;;;;;4.63;2.40;;;34.00;95.20;;;;;;7279853;19;20192;-79
2023/07/20 08:40:34;;;;;;;4.65;2.00;;;35.60;91.70;;;;;;7278475;19;20213;-78
2023/07/20 08:43:02;;;;;;;4.45;2.53;;;37.30;88.30;;;;;;7300356;19;20701;-80
2023/07/20 08:45:34;;;;;;;2.95;1.88;;;37.90;79.30;;;;;;7280238;19;20668;-78
2023/07/20 08:48:03;;;;;;;4.20;1.95;;;35.80;80.70;;;;;;7279985;19;20189;-78
2023/07/20 08:50:32;;;;;;;6.13;2.60;;;34.00;82.10;;;;;;7278778;19;20192;-79
2023/07/20 08:52:59;;;;;;;4.25;2.28;;;33.70;85.60;;;;;;7278433;19;20218;-78
2023/07/20 08:55:27;;;;;;;3.20;1.80;;;34.70;81.50;;;;;;7278554;19;20184;-78
2023/07/20 08:57:57;;;;;;;4.43;1.60;;;36.80;83.00;;;;;;7277249;19;20260;-79
2023/07/20 09:00:25;;;;;;;2.63;1.40;;;38.40;73.10;;;;;;7278958;19;20189;-78
2023/07/20 09:02:52;;;;;;;3.22;1.10;;;39.20;70.20;;;;;;7278629;19;20882;-79
2023/07/20 09:05:19;;;;;;;1.30;1.05;;;40.40;64.50;;;;;;7277127;19;20210;-79
2023/07/20 09:07:45;;;;;;;3.60;0.90;;;39.60;59.40;;;;;;7279084;19;20196;-79
2023/07/20 09:10:12;;;;;;;2.55;1.00;;;39.60;58.30;;;;;;7275202;19;20181;-79
2023/07/20 09:12:43;;;;;;;1.48;0.82;;;38.90;58.20;;;;;;7278731;19;20703;-79
2023/07/20 09:15:10;;;;;;;3.05;1.15;;;38.60;59.60;;;;;;7278136;19;20205;-79
2023/07/20 09:17:37;;;;;;;2.55;1.02;;;37.70;58.50;;;;;;7278192;19;20185;-79
2023/07/20 09:20:10;;;;;;;2.42;1.20;;;36.70;58.70;;;;;;7277674;19;20198;-78
2023/07/20 09:22:39;;;;;;;2.53;1.00;;;36.40;62.90;;;;;;7277758;19;20204;-79
2023/07/20 09:25:15;;;;;;;5.25;1.60;;;36.60;61.90;;;;;;7277582;19;20209;-78
2023/07/20 09:27:43;;;;;;;2.25;1.40;;;36.00;62.40;;;;;;7278741;19;20189;-78
2023/07/20 09:30:11;;;;;;;3.40;1.80;;;35.30;62.20;;;;;;7277560;19;20191;-78
2023/07/20 09:32:44;;;;;;;4.10;1.60;;;33.60;65.70;;;;;;7278439;19;20668;-78
2023/07/20 09:35:18;;;;;;;3.72;1.83;;;33.40;67.70;;;;;;7277926;19;20189;-78
2023/07/20 09:37:54;;;;;;;3.25;1.98;;;32.80;67.10;;;;;;7276874;19;20676;-78
2023/07/20 09:40:21;;;;;;;4.13;1.80;;;32.40;71.30;;;;;;7279177;19;20539;-78
2023/07/20 09:42:48;;;;;;;7.55;2.20;;;32.20;72.30;;;;;;7276257;19;20197;-78
2023/07/20 09:45:14;;;;;;;3.60;1.92;;;32.70;72.20;;;;;;7279117;19;20196;-78
2023/07/20 09:47:41;;;;;;;5.10;2.30;;;32.80;73.70;;;;;;7285051;19;20667;-78
2023/07/20 09:50:10;;;;;;;4.53;1.90;;;32.70;70.30;;;;;;7284439;19;20696;-78
2023/07/20 09:52:39;;;;;;;4.53;2.00;;;33.30;68.60;;;;;;7283747;19;20196;-78
2023/07/20 09:55:08;;;;;;;4.18;1.98;;;34.00;66.60;;;;;;7285675;19;20269;-78
2023/07/20 09:57:35;;;;;;;5.03;2.20;;;34.30;66.60;;;;;;7283028;19;20660;-78
2023/07/20 10:00:07;;;;;;;4.22;2.00;;;33.70;67.40;;;;;;7307738;19;20181;-76
2023/07/20 10:02:36;;;;;;;4.97;2.20;;;33.90;66.80;;;;;;7290937;19;20201;-77
2023/07/20 10:05:07;;;;;;;5.45;2.30;;;33.80;69.70;;;;;;7298204;19;20216;-77
2023/07/20 10:07:39;;;;;;;4.63;2.33;;;33.40;67.60;;;;;;7288637;19;20189;-77
2023/07/20 10:10:10;;;;;;;4.32;2.70;;;32.60;68.90;;;;;;7282617;19;20203;-78
2023/07/20 10:12:39;;;;;;;5.25;2.70;;;31.20;70.60;;;;;;7281465;19;20196;-78
2023/07/20 10:15:13;;;;;;;3.63;2.63;;;30.60;75.10;;;;;;7284107;19;20189;-77
2023/07/20 10:17:49;;;;;;;6.05;2.63;;;30.50;74.20;;;;;;7283199;19;20196;-78
2023/07/20 10:20:19;;;;;;;4.47;2.72;;;30.80;74.10;;;;;;7283850;19;20192;-79
2023/07/20 10:22:49;;;;;;;4.45;2.40;;;31.50;73.40;;;;;;7284310;19;20272;-79
2023/07/20 10:25:16;;;;;;;6.45;2.88;;;32.00;73.40;;;;;;7282822;19;20651;-79
2023/07/20 10:27:43;;;;;;;5.28;3.00;;;31.90;71.30;;;;;;7284278;19;20596;-78
2023/07/20 10:30:09;;;;;;;5.65;3.15;;;32.30;70.30;;;;;;7283496;19;20189;-78
2023/07/20 10:32:35;;;;;;;4.82;2.90;;;32.90;69.30;;;;;;7283855;19;20244;-79
2023/07/20 10:35:01;;;;;;;5.25;2.70;;;33.20;69.30;;;;;;7303469;19;20185;-76
2023/07/20 10:37:49;;;;;;;6.57;2.55;;;34.90;67.80;;;;;;7291729;19;20660;-79
2023/07/20 10:40:32;;;;;;;6.22;2.75;;;36.10;63.70;;;;;;7181306;19;2004752;-79
2023/07/20 10:43:02;;;;;;;4.10;2.30;;;35.30;64.70;;;;;;7282268;19;20185;-79
2023/07/20 10:45:34;;;;;;;4.47;2.10;;;35.50;64.90;;;;;;7283899;19;20184;-78
2023/07/20 10:48:03;;;;;;;4.15;2.40;;;37.40;64.60;;;;;;7283440;19;20315;-78
2023/07/20 10:50:29;;;;;;;4.13;2.53;;;36.90;61.30;;;;;;7282047;19;20192;-78
2023/07/20 10:53:13;;;;;;;5.93;2.83;;;35.50;62.00;;;;;;7283511;19;20195;-78
2023/07/20 10:55:40;;;;;;;4.93;2.80;;;32.80;65.10;;;;;;7180774;19;2004529;-77
2023/07/20 10:58:14;;;;;;;5.32;2.85;;;32.60;67.80;;;;;;7280267;19;20198;-77
2023/07/20 11:01:01;;;;;;;5.97;2.53;;;33.80;68.70;;;;;;7282200;19;20191;-78
2023/07/20 11:03:31;;;;;;;5.15;2.40;;;34.80;64.50;;;;;;7281012;19;20585;-78
2023/07/20 11:05:59;;;;;;;10.30;1.77;;;34.90;63.50;;;;;;7283410;19;20196;-78
2023/07/20 11:08:43;;;;;;;3.20;1.70;;;35.50;65.30;;;;;;7282798;19;20223;-77
2023/07/20 11:11:28;;;;;;;4.60;1.70;;;35.80;62.20;;;;;;7178774;19;2004445;-77
2023/07/20 11:14:04;;;;;;;9.00;1.83;;;35.10;61.70;;;;;;7281482;19;20571;-78
2023/07/20 11:16:46;;;;;;;6.88;1.92;;;33.90;62.80;;;;;;7259474;19;20652;-77
2023/07/20 11:19:25;;;;;;;4.40;2.00;;;33.40;67.80;;;;;;7279907;19;20577;-78
2023/07/20 11:21:52;;;;;;;5.35;2.60;;;32.80;67.50;;;;;;7281668;19;20190;-78
2023/07/20 11:24:18;;;;;;;4.65;2.40;;;32.20;69.50;;;;;;7280055;19;20189;-78
2023/07/20 11:26:46;;;;;;;4.07;2.30;;;30.90;71.30;;;;;;7280974;19;20192;-78
2023/07/20 11:29:13;;;;;;;5.40;2.28;;;30.50;72.00;;;;;;7281838;19;20196;-78
2023/07/20 11:31:40;;;;;;;4.38;2.20;;;29.80;75.10;;;;;;7282613;19;20235;-78
2023/07/20 11:34:10;;;;;;;5.53;1.90;;;29.70;76.40;;;;;;7282987;19;20180;-77
2023/07/20 11:36:36;;;;;;;3.38;1.98;;;29.30;75.70;;;;;;7280097;19;20679;-77
2023/07/20 11:39:04;;;;;;;5.13;1.80;;;29.10;76.70;;;;;;7288459;19;20197;-77
2023/07/20 11:41:31;;;;;;;2.78;1.90;;;28.80;79.60;;;;;;7303509;19;20656;-78
2023/07/20 11:43:57;;;;;;;3.78;1.85;;;28.90;80.90;;;;;;7282831;19;20996;-79
2023/07/20 11:46:23;;;;;;;5.47;1.92;;;29.30;78.50;;;;;;7281936;19;20303;-77
2023/07/20 11:48:48;;;;;;;3.05;1.50;;;31.00;79.50;;;;;;7281180;19;20211;-78
2023/07/20 11:51:16;;;;;;;6.38;1.92;;;33.10;73.70;;;;;;7279932;19;20542;-78
2023/07/20 11:53:43;;;;;;;2.90;1.50;;;35.00;68.80;;;;;;7281567;19;20189;-78
2023/07/20 11:56:10;;;;;;;3.97;1.42;;;35.50;63.90;;;;;;7280344;19;20252;-78
2023/07/20 11:58:41;;;;;;;2.85;1.60;;;35.70;65.70;;;;;;7278514;19;20209;-78
2023/07/20 12:01:07;;;;;;;3.00;1.63;;;34.90;62.60;;;;;;7280678;19;20577;-78
2023/07/20 12:03:32;;;;;;;5.53;1.40;;;34.40;62.60;;;;;;7284840;19;20192;-77
2023/07/20 12:06:07;;;;;;;5.20;1.90;;;33.80;63.90;;;;;;7301655;19;20193;-78
2023/07/20 12:08:33;;;;;;;5.30;1.75;;;33.10;63.60;;;;;;7263646;19;20180;-78
2023/07/20 12:10:58;;;;;;;3.45;1.80;;;31.90;66.40;;;;;;7300380;19;20196;-78
2023/07/20 12:13:34;;;;;;;4.95;1.80;;;30.80;67.80;;;;;;7280720;19;20185;-78
2023/07/20 12:16:09;;;;;;;4.32;1.52;;;30.30;72.40;;;;;;7282732;19;20214;-78
2023/07/20 12:18:35;;;;;;;3.83;1.60;;;30.20;70.40;;;;;;7257007;19;20188;-78
2023/07/20 12:21:02;;;;;;;4.60;1.58;;;29.60;72.70;;;;;;7293309;19;20192;-78
2023/07/20 12:23:36;;;;;;;3.25;1.50;;;29.70;73.20;;;;;;7297938;19;20196;-79
2023/07/20 12:26:02;;;;;;;4.80;1.50;;;29.60;72.60;;;;;;7270302;19;20196;-77
2023/07/20 12:28:28;;;;;;;4.75;1.60;;;29.50;73.00;;;;;;7301779;19;20184;-79
2023/07/20 12:30:56;;;;;;;3.95;1.67;;;29.10;74.30;;;;;;7280579;19;20545;-78
2023/07/20 12:33:22;;;;;;;4.45;1.98;;;29.10;73.80;;;;;;7278997;19;20178;-78
2023/07/20 12:35:49;;;;;;;3.40;1.60;;;28.90;75.30;;;;;;7280222;19;20200;-78
2023/07/20 12:38:15;;;;;;;2.97;1.67;;;29.00;77.20;;;;;;7278560;19;20316;-79
2023/07/20 12:40:41;;;;;;;3.80;1.60;;;29.10;75.50;;;;;;7278958;19;20185;-79
2023/07/20 12:43:07;;;;;;;4.20;1.60;;;29.00;74.90;;;;;;7278948;19;20658;-78